Rivadeo, Argentina
Current Conditions -  °F | °C
As of 8:00 AM on Thursday 18 Dec 2014 (Local Time) from SAZN Reporting Station
Clear Clear  
Wind Chill: 19°   Ceiling: Unl
Heat Index: 19°   Visibility: 6mi
Dew Point:   Wind: 6mph
Humidity: 49%   Direction: 270°W
Pressure: 29.88"   Gusts: NA
Location:  38.15°S, 63.06°W
Report Text: SAZN 181100Z 27005KT CAVOK 19/08 Q1012
Loading
Personal Weather Stations






























Interactive Weather Map New forecast layout! Learn more

10-Day Weather Forecast

Advertisements
Track Severe Weather on mobile